sensor_id;sensor_type;location;lat;lon;timestamp;pressure;altitude;pressure_sealevel;temperature
78859;BMP280;68210;52.032;4.634;2023-08-30T00:00:54;100672.66;;;17.43
78859;BMP280;68210;52.032;4.634;2023-08-30T00:02:54;100667.16;;;17.46
78859;BMP280;68210;52.032;4.634;2023-08-30T00:05:01;100669.50;;;17.48
78859;BMP280;68210;52.032;4.634;2023-08-30T00:07:02;100667.56;;;17.41
78859;BMP280;68210;52.032;4.634;2023-08-30T00:09:03;100666.34;;;17.53
78859;BMP280;68210;52.032;4.634;2023-08-30T00:11:03;100660.88;;;17.53
78859;BMP280;68210;52.032;4.634;2023-08-30T00:13:04;100656.28;;;17.29
78859;BMP280;68210;52.032;4.634;2023-08-30T00:15:05;100662.50;;;17.33
78859;BMP280;68210;52.032;4.634;2023-08-30T00:17:06;100644.47;;;17.42
78859;BMP280;68210;52.032;4.634;2023-08-30T00:19:06;100653.09;;;17.44
78859;BMP280;68210;52.032;4.634;2023-08-30T00:21:07;100646.78;;;17.44
78859;BMP280;68210;52.032;4.634;2023-08-30T00:23:07;100643.66;;;17.49
78859;BMP280;68210;52.032;4.634;2023-08-30T00:25:08;100651.13;;;17.38
78859;BMP280;68210;52.032;4.634;2023-08-30T00:27:08;100646.06;;;17.33
78859;BMP280;68210;52.032;4.634;2023-08-30T00:29:08;100642.16;;;17.31
78859;BMP280;68210;52.032;4.634;2023-08-30T00:31:09;100635.09;;;17.40
78859;BMP280;68210;52.032;4.634;2023-08-30T00:33:09;100637.41;;;17.45
78859;BMP280;68210;52.032;4.634;2023-08-30T00:35:09;100631.94;;;17.41
78859;BMP280;68210;52.032;4.634;2023-08-30T00:37:10;100632.69;;;17.49
78859;BMP280;68210;52.032;4.634;2023-08-30T00:39:10;100626.38;;;17.59
78859;BMP280;68210;52.032;4.634;2023-08-30T00:41:10;100629.41;;;17.71
78859;BMP280;68210;52.032;4.634;2023-08-30T00:43:11;100628.63;;;17.77
78859;BMP280;68210;52.032;4.634;2023-08-30T00:45:11;100632.53;;;17.76
78859;BMP280;68210;52.032;4.634;2023-08-30T00:47:11;100630.94;;;17.79
78859;BMP280;68210;52.032;4.634;2023-08-30T00:49:13;100634.00;;;17.91
78859;BMP280;68210;52.032;4.634;2023-08-30T00:51:14;100630.94;;;17.82
78859;BMP280;68210;52.032;4.634;2023-08-30T00:53:14;100629.38;;;17.78
78859;BMP280;68210;52.032;4.634;2023-08-30T00:55:15;100625.31;;;17.99
78859;BMP280;68210;52.032;4.634;2023-08-30T00:57:16;100627.31;;;17.92
78859;BMP280;68210;52.032;4.634;2023-08-30T00:59:16;100630.84;;;17.96
78859;BMP280;68210;52.032;4.634;2023-08-30T01:01:17;100632.38;;;18.04
78859;BMP280;68210;52.032;4.634;2023-08-30T01:03:18;100621.81;;;17.99
78859;BMP280;68210;52.032;4.634;2023-08-30T01:05:20;100616.63;;;18.15
78859;BMP280;68210;52.032;4.634;2023-08-30T01:07:20;100613.41;;;18.23
78859;BMP280;68210;52.032;4.634;2023-08-30T01:09:21;100603.97;;;18.24
78859;BMP280;68210;52.032;4.634;2023-08-30T01:11:30;100608.78;;;18.17
78859;BMP280;68210;52.032;4.634;2023-08-30T01:13:36;100603.25;;;18.20
78859;BMP280;68210;52.032;4.634;2023-08-30T01:15:39;100609.91;;;18.23
78859;BMP280;68210;52.032;4.634;2023-08-30T01:17:42;100599.47;;;18.04
78859;BMP280;68210;52.032;4.634;2023-08-30T01:19:47;100597.94;;;17.96
78859;BMP280;68210;52.032;4.634;2023-08-30T01:21:56;100598.69;;;18.03
78859;BMP280;68210;52.032;4.634;2023-08-30T01:23:59;100592.41;;;17.99
78859;BMP280;68210;52.032;4.634;2023-08-30T01:28:27;100592.78;;;18.05
78859;BMP280;68210;52.032;4.634;2023-08-30T01:30:30;100593.16;;;18.07
78859;BMP280;68210;52.032;4.634;2023-08-30T01:32:31;100590.41;;;18.07
78859;BMP280;68210;52.032;4.634;2023-08-30T01:34:35;100588.06;;;18.09
78859;BMP280;68210;52.032;4.634;2023-08-30T01:36:36;100584.50;;;18.12
78859;BMP280;68210;52.032;4.634;2023-08-30T01:38:38;100592.22;;;18.24
78859;BMP280;68210;52.032;4.634;2023-08-30T01:40:41;100589.16;;;18.18
78859;BMP280;68210;52.032;4.634;2023-08-30T01:42:43;100591.50;;;18.20
78859;BMP280;68210;52.032;4.634;2023-08-30T01:44:45;100586.09;;;18.06
78859;BMP280;68210;52.032;4.634;2023-08-30T01:46:46;100587.38;;;17.91
78859;BMP280;68210;52.032;4.634;2023-08-30T01:48:47;100594.09;;;17.83
78859;BMP280;68210;52.032;4.634;2023-08-30T01:50:49;100587.88;;;17.76
78859;BMP280;68210;52.032;4.634;2023-08-30T01:52:50;100591.91;;;17.61
78859;BMP280;68210;52.032;4.634;2023-08-30T01:54:51;100589.06;;;17.75
78859;BMP280;68210;52.032;4.634;2023-08-30T01:56:53;100585.16;;;17.72
78859;BMP280;68210;52.032;4.634;2023-08-30T01:58:53;100583.38;;;17.45
78859;BMP280;68210;52.032;4.634;2023-08-30T02:00:55;100586.91;;;17.42
78859;BMP280;68210;52.032;4.634;2023-08-30T02:02:57;100573.94;;;17.53
78859;BMP280;68210;52.032;4.634;2023-08-30T02:04:57;100581.31;;;17.60
78859;BMP280;68210;52.032;4.634;2023-08-30T02:07:02;100577.75;;;17.69
78859;BMP280;68210;52.032;4.634;2023-08-30T02:09:18;100585.63;;;17.61
78859;BMP280;68210;52.032;4.634;2023-08-30T02:11:26;100569.34;;;17.33
78859;BMP280;68210;52.032;4.634;2023-08-30T02:13:29;100573.25;;;17.39
78859;BMP280;68210;52.032;4.634;2023-08-30T02:15:31;100574.81;;;17.33
78859;BMP280;68210;52.032;4.634;2023-08-30T02:17:33;100565.44;;;17.34
78859;BMP280;68210;52.032;4.634;2023-08-30T02:19:35;100564.28;;;17.28
78859;BMP280;68210;52.032;4.634;2023-08-30T02:21:36;100558.44;;;17.26
78859;BMP280;68210;52.032;4.634;2023-08-30T02:23:37;100561.53;;;17.28
78859;BMP280;68210;52.032;4.634;2023-08-30T02:25:37;100563.09;;;17.29
78859;BMP280;68210;52.032;4.634;2023-08-30T02:27:38;100553.81;;;17.13
78859;BMP280;68210;52.032;4.634;2023-08-30T02:29:38;100556.16;;;17.11
78859;BMP280;68210;52.032;4.634;2023-08-30T02:31:38;100554.56;;;17.13
78859;BMP280;68210;52.032;4.634;2023-08-30T02:33:39;100548.31;;;17.16
78859;BMP280;68210;52.032;4.634;2023-08-30T02:35:39;100552.97;;;17.19
78859;BMP280;68210;52.032;4.634;2023-08-30T02:37:39;100560.44;;;17.08
78859;BMP280;68210;52.032;4.634;2023-08-30T02:39:42;100561.59;;;17.14
78859;BMP280;68210;52.032;4.634;2023-08-30T02:41:42;100556.94;;;17.15
78859;BMP280;68210;52.032;4.634;2023-08-30T02:43:42;100554.53;;;17.24
78859;BMP280;68210;52.032;4.634;2023-08-30T02:45:43;100555.72;;;17.19
78859;BMP280;68210;52.032;4.634;2023-08-30T02:47:44;100550.22;;;17.23
78859;BMP280;68210;52.032;4.634;2023-08-30T02:49:45;100548.69;;;17.18
78859;BMP280;68210;52.032;4.634;2023-08-30T02:51:45;100543.50;;;17.31
78859;BMP280;68210;52.032;4.634;2023-08-30T02:53:45;100535.41;;;17.10
78859;BMP280;68210;52.032;4.634;2023-08-30T02:55:47;100539.47;;;16.71
78859;BMP280;68210;52.032;4.634;2023-08-30T02:57:48;100532.06;;;16.58
78859;BMP280;68210;52.032;4.634;2023-08-30T02:59:48;100525.09;;;16.43
78859;BMP280;68210;52.032;4.634;2023-08-30T03:01:48;100529.81;;;16.01
78859;BMP280;68210;52.032;4.634;2023-08-30T03:03:49;100533.72;;;15.80
78859;BMP280;68210;52.032;4.634;2023-08-30T03:05:49;100522.00;;;15.76
78859;BMP280;68210;52.032;4.634;2023-08-30T03:07:50;100522.78;;;15.86
78859;BMP280;68210;52.032;4.634;2023-08-30T03:09:52;100523.94;;;15.92
78859;BMP280;68210;52.032;4.634;2023-08-30T03:11:53;100515.72;;;15.99
78859;BMP280;68210;52.032;4.634;2023-08-30T03:13:53;100504.03;;;15.95
78859;BMP280;68210;52.032;4.634;2023-08-30T03:15:54;100497.00;;;15.87
78859;BMP280;68210;52.032;4.634;2023-08-30T03:17:54;100497.00;;;15.91
78859;BMP280;68210;52.032;4.634;2023-08-30T03:19:54;100496.22;;;15.77
78859;BMP280;68210;52.032;4.634;2023-08-30T03:21:55;100498.56;;;15.61
78859;BMP280;68210;52.032;4.634;2023-08-30T03:23:55;100506.38;;;15.55
78859;BMP280;68210;52.032;4.634;2023-08-30T03:25:55;100496.22;;;15.56
78859;BMP280;68210;52.032;4.634;2023-08-30T03:27:56;100495.44;;;15.45
78859;BMP280;68210;52.032;4.634;2023-08-30T03:29:56;100491.91;;;15.48
78859;BMP280;68210;52.032;4.634;2023-08-30T03:31:56;100491.94;;;15.41
78859;BMP280;68210;52.032;4.634;2023-08-30T03:33:57;100477.44;;;15.23
78859;BMP280;68210;52.032;4.634;2023-08-30T03:35:58;100478.59;;;15.12
78859;BMP280;68210;52.032;4.634;2023-08-30T03:37:59;100484.38;;;14.90
78859;BMP280;68210;52.032;4.634;2023-08-30T03:39:59;100479.66;;;14.84
78859;BMP280;68210;52.032;4.634;2023-08-30T03:41:59;100479.69;;;14.87
78859;BMP280;68210;52.032;4.634;2023-08-30T03:44:00;100478.06;;;14.72
78859;BMP280;68210;52.032;4.634;2023-08-30T03:46:00;100472.59;;;14.72
78859;BMP280;68210;52.032;4.634;2023-08-30T03:48:01;100471.06;;;14.75
78859;BMP280;68210;52.032;4.634;2023-08-30T03:50:01;100483.84;;;14.54
78859;BMP280;68210;52.032;4.634;2023-08-30T03:52:02;100473.34;;;14.62
78859;BMP280;68210;52.032;4.634;2023-08-30T03:54:02;100472.13;;;14.50
78859;BMP280;68210;52.032;4.634;2023-08-30T03:56:03;100474.03;;;14.42
78859;BMP280;68210;52.032;4.634;2023-08-30T03:58:04;100476.34;;;14.37
78859;BMP280;68210;52.032;4.634;2023-08-30T04:00:04;100461.22;;;14.50
78859;BMP280;68210;52.032;4.634;2023-08-30T04:02:05;100466.22;;;14.41
78859;BMP280;68210;52.032;4.634;2023-08-30T04:04:05;100464.78;;;14.64
78859;BMP280;68210;52.032;4.634;2023-08-30T04:06:05;100464.66;;;14.36
78859;BMP280;68210;52.032;4.634;2023-08-30T04:08:06;100464.78;;;14.60
78859;BMP280;68210;52.032;4.634;2023-08-30T04:10:07;100461.47;;;14.27
78859;BMP280;68210;52.032;4.634;2023-08-30T04:12:07;100466.09;;;14.13
78859;BMP280;68210;52.032;4.634;2023-08-30T04:14:08;100464.47;;;14.05
78859;BMP280;68210;52.032;4.634;2023-08-30T04:16:08;100465.16;;;13.96
78859;BMP280;68210;52.032;4.634;2023-08-30T04:18:09;100466.78;;;14.00
78859;BMP280;68210;52.032;4.634;2023-08-30T04:20:09;100468.19;;;13.84
78859;BMP280;68210;52.032;4.634;2023-08-30T04:22:10;100454.16;;;13.78
78859;BMP280;68210;52.032;4.634;2023-08-30T04:24:11;100446.41;;;13.84
78859;BMP280;68210;52.032;4.634;2023-08-30T04:26:11;100451.84;;;13.84
78859;BMP280;68210;52.032;4.634;2023-08-30T04:28:12;100443.78;;;13.98
78859;BMP280;68210;52.032;4.634;2023-08-30T04:30:13;100445.06;;;14.17
78859;BMP280;68210;52.032;4.634;2023-08-30T04:32:13;100431.44;;;14.17
78859;BMP280;68210;52.032;4.634;2023-08-30T04:34:13;100436.47;;;14.12
78859;BMP280;68210;52.032;4.634;2023-08-30T04:36:15;100432.56;;;14.09
78859;BMP280;68210;52.032;4.634;2023-08-30T04:38:16;100435.72;;;14.15
78859;BMP280;68210;52.032;4.634;2023-08-30T04:40:16;100446.59;;;14.11
78859;BMP280;68210;52.032;4.634;2023-08-30T04:42:16;100434.94;;;14.14
78859;BMP280;68210;52.032;4.634;2023-08-30T04:44:17;100443.28;;;14.42
78859;BMP280;68210;52.032;4.634;2023-08-30T04:46:19;100436.97;;;14.31
78859;BMP280;68210;52.032;4.634;2023-08-30T04:48:19;100435.50;;;14.47
78859;BMP280;68210;52.032;4.634;2023-08-30T04:50:20;100429.69;;;14.62
78859;BMP280;68210;52.032;4.634;2023-08-30T04:52:20;100417.94;;;14.45
78859;BMP280;68210;52.032;4.634;2023-08-30T05:00:05;100431.94;;;14.40
78859;BMP280;68210;52.032;4.634;2023-08-30T05:02:05;100439.38;;;14.43
78859;BMP280;68210;52.032;4.634;2023-08-30T05:04:06;100437.50;;;14.64
78859;BMP280;68210;52.032;4.634;2023-08-30T05:06:07;100438.59;;;14.42
78859;BMP280;68210;52.032;4.634;2023-08-30T05:08:07;100445.66;;;14.57
78859;BMP280;68210;52.032;4.634;2023-08-30T05:10:08;100444.56;;;14.79
78859;BMP280;68210;52.032;4.634;2023-08-30T05:12:08;100440.31;;;14.91
78859;BMP280;68210;52.032;4.634;2023-08-30T05:14:09;100450.16;;;15.17
78859;BMP280;68210;52.032;4.634;2023-08-30T05:16:12;100451.69;;;15.11
78859;BMP280;68210;52.032;4.634;2023-08-30T05:18:13;100445.47;;;15.20
78859;BMP280;68210;52.032;4.634;2023-08-30T05:20:13;100450.94;;;15.38
78859;BMP280;68210;52.032;4.634;2023-08-30T05:22:13;100452.50;;;15.32
78859;BMP280;68210;52.032;4.634;2023-08-30T05:24:14;100446.25;;;15.35
78859;BMP280;68210;52.032;4.634;2023-08-30T05:26:14;100436.03;;;14.94
78859;BMP280;68210;52.032;4.634;2023-08-30T05:28:16;100434.50;;;15.07
78859;BMP280;68210;52.032;4.634;2023-08-30T05:30:17;100449.38;;;15.20
78859;BMP280;68210;52.032;4.634;2023-08-30T05:32:17;100438.44;;;15.26
78859;BMP280;68210;52.032;4.634;2023-08-30T05:34:18;100439.94;;;15.07
78859;BMP280;68210;52.032;4.634;2023-08-30T05:36:18;100432.97;;;15.13
78859;BMP280;68210;52.032;4.634;2023-08-30T05:38:18;100435.25;;;14.97
78859;BMP280;68210;52.032;4.634;2023-08-30T05:40:19;100441.41;;;14.73
78859;BMP280;68210;52.032;4.634;2023-08-30T05:42:19;100435.53;;;14.61
78859;BMP280;68210;52.032;4.634;2023-08-30T05:44:19;100431.59;;;14.45
78859;BMP280;68210;52.032;4.634;2023-08-30T05:46:20;100433.13;;;14.46
78859;BMP280;68210;52.032;4.634;2023-08-30T05:48:20;100421.09;;;14.54
78859;BMP280;68210;52.032;4.634;2023-08-30T05:50:21;100424.13;;;14.35
78859;BMP280;68210;52.032;4.634;2023-08-30T05:52:21;100411.97;;;14.15
78859;BMP280;68210;52.032;4.634;2023-08-30T05:54:22;100418.25;;;14.29
78859;BMP280;68210;52.032;4.634;2023-08-30T05:56:22;100409.63;;;14.17
78859;BMP280;68210;52.032;4.634;2023-08-30T05:58:22;100412.59;;;13.92
78859;BMP280;68210;52.032;4.634;2023-08-30T06:00:23;100418.50;;;14.00
78859;BMP280;68210;52.032;4.634;2023-08-30T06:02:26;100407.31;;;14.16
78859;BMP280;68210;52.032;4.634;2023-08-30T06:04:26;100414.63;;;14.01
78859;BMP280;68210;52.032;4.634;2023-08-30T06:06:27;100400.31;;;14.18
78859;BMP280;68210;52.032;4.634;2023-08-30T06:08:29;100398.06;;;13.74
78859;BMP280;68210;52.032;4.634;2023-08-30T06:10:29;100398.00;;;13.64
78859;BMP280;68210;52.032;4.634;2023-08-30T06:12:30;100406.56;;;13.66
78859;BMP280;68210;52.032;4.634;2023-08-30T06:14:30;100400.09;;;13.87
78859;BMP280;68210;52.032;4.634;2023-08-30T06:16:30;100407.06;;;13.78
78859;BMP280;68210;52.032;4.634;2023-08-30T06:18:32;100396.16;;;13.81
78859;BMP280;68210;52.032;4.634;2023-08-30T06:20:32;100402.00;;;13.80
78859;BMP280;68210;52.032;4.634;2023-08-30T06:22:32;100386.47;;;13.87
78859;BMP280;68210;52.032;4.634;2023-08-30T06:24:33;100393.97;;;14.00
78859;BMP280;68210;52.032;4.634;2023-08-30T06:26:33;100388.94;;;14.02
78859;BMP280;68210;52.032;4.634;2023-08-30T06:28:34;100387.72;;;13.97
78859;BMP280;68210;52.032;4.634;2023-08-30T06:30:34;100388.06;;;13.92
78859;BMP280;68210;52.032;4.634;2023-08-30T06:32:35;100378.44;;;14.08
78859;BMP280;68210;52.032;4.634;2023-08-30T06:34:35;100379.06;;;13.84
78859;BMP280;68210;52.032;4.634;2023-08-30T06:36:36;100373.59;;;13.81
78859;BMP280;68210;52.032;4.634;2023-08-30T06:38:36;100377.47;;;13.80
78859;BMP280;68210;52.032;4.634;2023-08-30T06:40:43;100374.72;;;13.76
78859;BMP280;68210;52.032;4.634;2023-08-30T06:42:43;100374.78;;;13.83
78859;BMP280;68210;52.032;4.634;2023-08-30T06:44:43;100368.91;;;13.78
78859;BMP280;68210;52.032;4.634;2023-08-30T06:46:44;100378.72;;;13.93
78859;BMP280;68210;52.032;4.634;2023-08-30T06:48:44;100384.16;;;13.89
78859;BMP280;68210;52.032;4.634;2023-08-30T06:50:44;100371.28;;;13.83
78859;BMP280;68210;52.032;4.634;2023-08-30T06:52:45;100366.16;;;13.74
78859;BMP280;68210;52.032;4.634;2023-08-30T06:54:45;100374.66;;;13.66
78859;BMP280;68210;52.032;4.634;2023-08-30T06:56:59;100366.53;;;13.73
78859;BMP280;68210;52.032;4.634;2023-08-30T06:58:59;100356.81;;;13.72
78859;BMP280;68210;52.032;4.634;2023-08-30T07:01:00;100341.25;;;13.76
78859;BMP280;68210;52.032;4.634;2023-08-30T07:03:00;100349.78;;;13.67
78859;BMP280;68210;52.032;4.634;2023-08-30T07:05:01;100350.59;;;13.75
78859;BMP280;68210;52.032;4.634;2023-08-30T07:07:02;100355.25;;;13.71
78859;BMP280;68210;52.032;4.634;2023-08-30T07:09:03;100349.88;;;13.85
78859;BMP280;68210;52.032;4.634;2023-08-30T07:11:04;100352.59;;;13.85
78859;BMP280;68210;52.032;4.634;2023-08-30T07:13:05;100338.19;;;13.88
78859;BMP280;68210;52.032;4.634;2023-08-30T07:15:10;100344.78;;;13.80
78859;BMP280;68210;52.032;4.634;2023-08-30T07:17:11;100338.25;;;13.95
78859;BMP280;68210;52.032;4.634;2023-08-30T07:19:11;100337.00;;;13.82
78859;BMP280;68210;52.032;4.634;2023-08-30T07:21:11;100334.28;;;13.82
78859;BMP280;68210;52.032;4.634;2023-08-30T07:23:12;100339.00;;;13.92
78859;BMP280;68210;52.032;4.634;2023-08-30T07:25:12;100324.28;;;13.99
78859;BMP280;68210;52.032;4.634;2023-08-30T07:27:13;100330.50;;;13.97
78859;BMP280;68210;52.032;4.634;2023-08-30T07:29:14;100321.19;;;14.08
78859;BMP280;68210;52.032;4.634;2023-08-30T07:31:15;100317.25;;;13.98
78859;BMP280;68210;52.032;4.634;2023-08-30T07:33:18;100324.31;;;14.06
78859;BMP280;68210;52.032;4.634;2023-08-30T07:35:18;100321.25;;;14.18
78859;BMP280;68210;52.032;4.634;2023-08-30T07:37:20;100320.50;;;14.35
78859;BMP280;68210;52.032;4.634;2023-08-30T07:39:21;100310.00;;;14.37
78859;BMP280;68210;52.032;4.634;2023-08-30T07:41:21;100315.81;;;14.28
78859;BMP280;68210;52.032;4.634;2023-08-30T07:43:21;100301.03;;;14.29
78859;BMP280;68210;52.032;4.634;2023-08-30T07:45:22;100301.78;;;14.27
78859;BMP280;68210;52.032;4.634;2023-08-30T07:47:22;100300.56;;;14.10
78859;BMP280;68210;52.032;4.634;2023-08-30T07:49:22;100305.69;;;14.36
78859;BMP280;68210;52.032;4.634;2023-08-30T07:51:23;100304.97;;;14.53
78859;BMP280;68210;52.032;4.634;2023-08-30T07:53:23;100310.06;;;14.71
78859;BMP280;68210;52.032;4.634;2023-08-30T07:55:23;100303.81;;;14.60
78859;BMP280;68210;52.032;4.634;2023-08-30T07:57:24;100298.38;;;14.74
78859;BMP280;68210;52.032;4.634;2023-08-30T07:59:24;100292.13;;;14.77
78859;BMP280;68210;52.032;4.634;2023-08-30T08:01:25;100293.28;;;14.73
78859;BMP280;68210;52.032;4.634;2023-08-30T08:03:25;100295.66;;;14.78
78859;BMP280;68210;52.032;4.634;2023-08-30T08:05:25;100299.53;;;14.80
78859;BMP280;68210;52.032;4.634;2023-08-30T08:07:26;100308.88;;;14.89
78859;BMP280;68210;52.032;4.634;2023-08-30T08:09:26;100315.53;;;14.78
78859;BMP280;68210;52.032;4.634;2023-08-30T08:11:26;100307.31;;;14.82
78859;BMP280;68210;52.032;4.634;2023-08-30T08:13:28;100316.69;;;14.84
78859;BMP280;68210;52.032;4.634;2023-08-30T08:15:29;100301.91;;;14.95
78859;BMP280;68210;52.032;4.634;2023-08-30T08:17:31;100291.75;;;14.96
78859;BMP280;68210;52.032;4.634;2023-08-30T08:19:31;100303.06;;;15.01
78859;BMP280;68210;52.032;4.634;2023-08-30T08:21:31;100302.25;;;14.97
78859;BMP280;68210;52.032;4.634;2023-08-30T08:23:32;100301.13;;;14.98
78859;BMP280;68210;52.032;4.634;2023-08-30T08:25:32;100297.22;;;15.23
78859;BMP280;68210;52.032;4.634;2023-08-30T08:27:32;100305.00;;;15.21
78859;BMP280;68210;52.032;4.634;2023-08-30T08:29:33;100297.22;;;15.20
78859;BMP280;68210;52.032;4.634;2023-08-30T08:31:33;100294.88;;;15.36
78859;BMP280;68210;52.032;4.634;2023-08-30T08:33:34;100298.75;;;15.45
78859;BMP280;68210;52.032;4.634;2023-08-30T08:35:34;100297.19;;;15.48
78859;BMP280;68210;52.032;4.634;2023-08-30T08:37:34;100294.84;;;15.46
78859;BMP280;68210;52.032;4.634;2023-08-30T08:39:35;100294.84;;;15.46
78859;BMP280;68210;52.032;4.634;2023-08-30T08:41:43;100296.75;;;15.59
78859;BMP280;68210;52.032;4.634;2023-08-30T08:43:44;100299.09;;;15.68
78859;BMP280;68210;52.032;4.634;2023-08-30T08:45:45;100283.84;;;15.74
78859;BMP280;68210;52.032;4.634;2023-08-30T08:47:46;100287.22;;;16.02
78859;BMP280;68210;52.032;4.634;2023-08-30T08:49:47;100292.81;;;16.55
78859;BMP280;68210;52.032;4.634;2023-08-30T08:51:48;100278.09;;;16.89
78859;BMP280;68210;52.032;4.634;2023-08-30T08:53:49;100282.69;;;17.46
78859;BMP280;68210;52.032;4.634;2023-08-30T08:55:49;100280.66;;;17.86
78859;BMP280;68210;52.032;4.634;2023-08-30T08:57:51;100283.16;;;18.36
78859;BMP280;68210;52.032;4.634;2023-08-30T08:59:51;100286.72;;;18.86
78859;BMP280;68210;52.032;4.634;2023-08-30T09:01:52;100282.31;;;19.37
78859;BMP280;68210;52.032;4.634;2023-08-30T09:03:52;100280.81;;;19.74
78859;BMP280;68210;52.032;4.634;2023-08-30T09:05:53;100275.53;;;20.21
78859;BMP280;68210;52.032;4.634;2023-08-30T09:07:54;100281.63;;;19.94
78859;BMP280;68210;52.032;4.634;2023-08-30T09:09:55;100282.94;;;20.24
78859;BMP280;68210;52.032;4.634;2023-08-30T09:11:55;100292.97;;;20.34
78859;BMP280;68210;52.032;4.634;2023-08-30T09:13:55;100292.28;;;20.81
78859;BMP280;68210;52.032;4.634;2023-08-30T09:15:56;100293.66;;;20.73
78859;BMP280;68210;52.032;4.634;2023-08-30T09:17:56;100291.41;;;21.00
78859;BMP280;68210;52.032;4.634;2023-08-30T09:20:08;100290.81;;;20.61
78859;BMP280;68210;52.032;4.634;2023-08-30T09:22:08;100284.47;;;20.79
78859;BMP280;68210;52.032;4.634;2023-08-30T09:24:09;100292.72;;;20.79
78859;BMP280;68210;52.032;4.634;2023-08-30T09:26:09;100283.16;;;21.00
78859;BMP280;68210;52.032;4.634;2023-08-30T09:28:09;100289.44;;;20.84
78859;BMP280;68210;52.032;4.634;2023-08-30T09:30:10;100292.44;;;21.05
78859;BMP280;68210;52.032;4.634;2023-08-30T09:32:10;100297.69;;;20.69
78859;BMP280;68210;52.032;4.634;2023-08-30T09:34:11;100292.53;;;20.86
78859;BMP280;68210;52.032;4.634;2023-08-30T09:36:11;100291.16;;;21.10
78859;BMP280;68210;52.032;4.634;2023-08-30T09:38:18;100277.75;;;20.96
78859;BMP280;68210;52.032;4.634;2023-08-30T09:40:19;100283.31;;;21.24
78859;BMP280;68210;52.032;4.634;2023-08-30T09:42:19;100278.91;;;21.11
78859;BMP280;68210;52.032;4.634;2023-08-30T09:44:21;100284.09;;;21.09
78859;BMP280;68210;52.032;4.634;2023-08-30T09:46:21;100292.78;;;21.07
78859;BMP280;68210;52.032;4.634;2023-08-30T09:48:27;100280.66;;;20.89
78859;BMP280;68210;52.032;4.634;2023-08-30T09:50:28;100284.19;;;20.90
78859;BMP280;68210;52.032;4.634;2023-08-30T09:52:31;100278.66;;;21.21
78859;BMP280;68210;52.032;4.634;2023-08-30T09:54:33;100288.56;;;21.19
78859;BMP280;68210;52.032;4.634;2023-08-30T09:56:35;100291.78;;;21.02
78859;BMP280;68210;52.032;4.634;2023-08-30T09:58:36;100299.44;;;20.94
78859;BMP280;68210;52.032;4.634;2023-08-30T10:00:37;100290.13;;;21.20
78859;BMP280;68210;52.032;4.634;2023-08-30T10:02:41;100298.41;;;21.04
78859;BMP280;68210;52.032;4.634;2023-08-30T10:04:43;100289.00;;;21.02
78859;BMP280;68210;52.032;4.634;2023-08-30T10:06:45;100296.50;;;20.70
78859;BMP280;68210;52.032;4.634;2023-08-30T10:08:47;100284.44;;;20.64
78859;BMP280;68210;52.032;4.634;2023-08-30T10:10:50;100293.72;;;20.70
78859;BMP280;68210;52.032;4.634;2023-08-30T10:12:51;100285.81;;;20.52
78859;BMP280;68210;52.032;4.634;2023-08-30T10:14:51;100304.28;;;20.20
78859;BMP280;68210;52.032;4.634;2023-08-30T10:17:02;100303.19;;;20.14
78859;BMP280;68210;52.032;4.634;2023-08-30T10:19:08;100300.63;;;19.66
78859;BMP280;68210;52.032;4.634;2023-08-30T10:21:12;100306.59;;;19.61
78859;BMP280;68210;52.032;4.634;2023-08-30T10:23:14;100309.47;;;19.35
78859;BMP280;68210;52.032;4.634;2023-08-30T10:25:21;100318.66;;;19.25
78859;BMP280;68210;52.032;4.634;2023-08-30T10:27:24;100328.22;;;19.17
78859;BMP280;68210;52.032;4.634;2023-08-30T10:29:27;100332.19;;;19.16
78859;BMP280;68210;52.032;4.634;2023-08-30T10:31:28;100331.28;;;19.22
78859;BMP280;68210;52.032;4.634;2023-08-30T10:33:28;100321.66;;;19.34
78859;BMP280;68210;52.032;4.634;2023-08-30T10:35:29;100333.63;;;19.24
78859;BMP280;68210;52.032;4.634;2023-08-30T10:37:29;100337.00;;;19.09
78859;BMP280;68210;52.032;4.634;2023-08-30T10:39:34;100341.13;;;18.97
78859;BMP280;68210;52.032;4.634;2023-08-30T10:41:35;100334.66;;;19.07
78859;BMP280;68210;52.032;4.634;2023-08-30T10:43:36;100340.88;;;19.11
78859;BMP280;68210;52.032;4.634;2023-08-30T10:45:37;100332.38;;;19.02
78859;BMP280;68210;52.032;4.634;2023-08-30T10:47:39;100336.31;;;19.01
78859;BMP280;68210;52.032;4.634;2023-08-30T10:49:42;100340.06;;;19.14
78859;BMP280;68210;52.032;4.634;2023-08-30T10:51:42;100341.91;;;19.20
78859;BMP280;68210;52.032;4.634;2023-08-30T10:53:57;100339.81;;;19.05
78859;BMP280;68210;52.032;4.634;2023-08-30T10:56:09;100343.88;;;19.20
78859;BMP280;68210;52.032;4.634;2023-08-30T10:58:13;100346.75;;;19.36
78859;BMP280;68210;52.032;4.634;2023-08-30T11:00:20;100330.06;;;19.46
78859;BMP280;68210;52.032;4.634;2023-08-30T11:02:22;100330.59;;;19.60
78859;BMP280;68210;52.032;4.634;2023-08-30T11:04:24;100338.00;;;20.05
78859;BMP280;68210;52.032;4.634;2023-08-30T11:06:24;100338.06;;;20.40
78859;BMP280;68210;52.032;4.634;2023-08-30T11:08:25;100343.59;;;20.75
78859;BMP280;68210;52.032;4.634;2023-08-30T11:10:26;100343.22;;;20.73
78859;BMP280;68210;52.032;4.634;2023-08-30T11:12:26;100343.00;;;20.83
78859;BMP280;68210;52.032;4.634;2023-08-30T11:14:27;100338.53;;;20.89
78859;BMP280;68210;52.032;4.634;2023-08-30T11:16:27;100335.94;;;20.82
78859;BMP280;68210;52.032;4.634;2023-08-30T11:18:28;100339.72;;;20.88
78859;BMP280;68210;52.032;4.634;2023-08-30T11:20:28;100339.81;;;21.01
78859;BMP280;68210;52.032;4.634;2023-08-30T11:22:29;100344.38;;;20.91
78859;BMP280;68210;52.032;4.634;2023-08-30T11:24:29;100343.69;;;20.87
78859;BMP280;68210;52.032;4.634;2023-08-30T11:26:30;100330.75;;;20.69
78859;BMP280;68210;52.032;4.634;2023-08-30T11:28:31;100338.50;;;20.73
78859;BMP280;68210;52.032;4.634;2023-08-30T11:30:31;100339.53;;;20.64
78859;BMP280;68210;52.032;4.634;2023-08-30T11:32:33;100341.94;;;20.62
78859;BMP280;68210;52.032;4.634;2023-08-30T11:34:33;100343.75;;;20.84
78859;BMP280;68210;52.032;4.634;2023-08-30T11:36:35;100337.56;;;20.80